createdAt,value
2018-04-26T00:02:47.210Z,88.61
2018-04-26T00:05:50.647Z,87.71
2018-04-26T00:08:53.950Z,88.34
2018-04-26T00:11:57.283Z,88.91
2018-04-26T00:15:01.440Z,88.74
2018-04-26T00:18:04.770Z,88.96
2018-04-26T00:21:08.064Z,89.31
2018-04-26T00:24:11.395Z,89.51
2018-04-26T00:27:16.526Z,88.97
2018-04-26T00:30:21.014Z,88.79
2018-04-26T00:33:24.308Z,88.76
2018-04-26T00:36:27.697Z,88.77
2018-04-26T00:39:31.113Z,88.87
2018-04-26T00:42:34.436Z,88.61
2018-04-26T00:45:37.801Z,88.60
2018-04-26T00:48:41.138Z,88.59
2018-04-26T00:52:04.221Z,88.85
2018-04-26T00:55:07.546Z,88.93
2018-04-26T00:58:10.851Z,89.20
2018-04-26T01:01:14.248Z,89.37
2018-04-26T01:04:17.648Z,89.72
2018-04-26T01:07:20.970Z,89.78
2018-04-26T01:10:24.353Z,89.54
2018-04-26T01:13:27.712Z,89.24
2018-04-26T01:16:31.012Z,89.27
2018-04-26T01:19:34.344Z,89.41
2018-04-26T01:22:37.646Z,89.77
2018-04-26T01:25:41.039Z,89.86
2018-04-26T01:28:44.337Z,89.93
2018-04-26T01:31:47.674Z,89.85
2018-04-26T01:34:50.985Z,89.61
2018-04-26T01:37:55.161Z,89.41
2018-04-26T01:40:58.462Z,89.40
2018-04-26T01:44:01.853Z,89.55
2018-04-26T01:47:05.262Z,89.74
2018-04-26T01:50:08.589Z,89.76
2018-04-26T01:53:11.959Z,89.88
2018-04-26T01:56:15.306Z,89.84
2018-04-26T01:59:19.469Z,89.83
2018-04-26T02:02:22.876Z,89.63
2018-04-26T02:05:26.182Z,89.40
2018-04-26T02:08:29.520Z,89.23
2018-04-26T02:11:32.857Z,89.17
2018-04-26T02:14:36.169Z,89.05
2018-04-26T02:17:39.557Z,89.13
2018-04-26T02:20:42.900Z,89.15
2018-04-26T02:23:47.081Z,89.22
2018-04-26T02:26:50.476Z,89.19
2018-04-26T02:29:53.872Z,89.36
2018-04-26T02:32:57.272Z,89.60
2018-04-26T02:36:00.590Z,89.70
2018-04-26T02:39:03.939Z,89.84
2018-04-26T02:42:07.248Z,90.18
2018-04-26T02:45:10.582Z,90.31
2018-04-26T02:48:14.211Z,90.34
2018-04-26T02:51:18.307Z,90.50
2018-04-26T02:54:22.413Z,90.65
2018-04-26T02:57:25.851Z,90.86
2018-04-26T03:00:29.139Z,91.28
2018-04-26T03:03:32.510Z,91.39
2018-04-26T03:06:35.905Z,91.55
2018-04-26T03:09:39.471Z,91.56
2018-04-26T03:12:42.784Z,91.52
2018-04-26T03:15:46.209Z,91.62
2018-04-26T03:18:49.530Z,91.59
2018-04-26T03:21:52.869Z,91.52
2018-04-26T03:24:56.196Z,91.61
2018-04-26T03:27:59.600Z,91.76
2018-04-26T03:31:03.113Z,91.97
2018-04-26T03:34:06.467Z,92.01
2018-04-26T03:37:09.794Z,92.16
2018-04-26T03:40:13.222Z,91.92
2018-04-26T03:43:16.618Z,91.95
2018-04-26T03:46:20.000Z,91.95
2018-04-26T03:49:23.400Z,92.13
2018-04-26T03:52:26.798Z,92.30
2018-04-26T03:55:30.106Z,92.48
2018-04-26T03:58:33.497Z,92.47
2018-04-26T04:01:54.812Z,92.56
2018-04-26T04:05:25.030Z,92.54
2018-04-26T04:08:28.345Z,92.34
2018-04-26T04:11:31.681Z,92.21
2018-04-26T04:14:35.047Z,92.12
2018-04-26T04:17:38.387Z,92.10
2018-04-26T04:20:42.453Z,92.09
2018-04-26T04:23:45.784Z,92.03
2018-04-26T04:26:49.090Z,91.92
2018-04-26T04:29:52.413Z,91.80
2018-04-26T04:32:55.713Z,91.67
2018-04-26T04:35:59.050Z,91.46
2018-04-26T04:39:02.464Z,90.81
2018-04-26T04:42:05.852Z,90.09
2018-04-26T04:45:09.269Z,89.87
2018-04-26T04:48:13.294Z,89.56
2018-04-26T04:51:16.671Z,89.05
2018-04-26T04:54:19.999Z,88.58
2018-04-26T04:57:24.267Z,88.20
2018-04-26T05:00:27.680Z,87.81
2018-04-26T05:03:31.096Z,87.71
2018-04-26T05:06:34.473Z,87.92
2018-04-26T05:09:37.881Z,87.88
2018-04-26T05:12:41.282Z,87.32
2018-04-26T05:15:44.672Z,86.86
2018-04-26T05:18:48.081Z,86.50
2018-04-26T05:21:51.386Z,85.71
2018-04-26T05:24:54.737Z,85.54
2018-04-26T05:27:58.080Z,85.07
2018-04-26T05:31:01.401Z,85.26
2018-04-26T05:34:04.697Z,85.45
2018-04-26T05:37:08.069Z,85.53
2018-04-26T05:40:11.430Z,85.40
2018-04-26T05:43:14.761Z,85.06
2018-04-26T05:46:18.167Z,84.83
2018-04-26T05:49:21.569Z,84.59
2018-04-26T05:52:24.872Z,84.49
2018-04-26T05:55:28.252Z,84.56
2018-04-26T05:58:31.875Z,84.42
2018-04-26T06:01:36.021Z,84.35
2018-04-26T06:04:39.398Z,84.46
2018-04-26T06:07:42.794Z,83.47
2018-04-26T06:10:46.089Z,82.62
2018-04-26T06:13:49.491Z,81.63
2018-04-26T06:16:52.824Z,80.23
2018-04-26T06:19:57.015Z,80.34
2018-04-26T06:23:00.405Z,79.72
2018-04-26T06:26:03.806Z,79.30
2018-04-26T06:29:07.198Z,77.91
2018-04-26T06:32:10.610Z,76.61
2018-04-26T06:35:14.010Z,76.37
2018-04-26T06:38:17.372Z,76.27
2018-04-26T06:41:20.719Z,76.59
2018-04-26T06:44:24.106Z,75.25
2018-04-26T06:47:27.423Z,75.10
2018-04-26T06:50:30.759Z,74.77
2018-04-26T06:53:34.078Z,74.44
2018-04-26T06:56:37.426Z,73.91
2018-04-26T06:59:41.508Z,73.60
2018-04-26T07:02:44.911Z,73.02
2018-04-26T07:05:48.292Z,72.40
2018-04-26T07:08:51.617Z,72.48
2018-04-26T07:11:55.100Z,71.24
2018-04-26T07:14:58.395Z,71.48
2018-04-26T07:18:01.705Z,70.13
2018-04-26T07:21:05.120Z,70.01
2018-04-26T07:24:08.443Z,68.59
2018-04-26T07:27:12.636Z,68.10
2018-04-26T07:30:16.034Z,69.49
2018-04-26T07:33:19.379Z,68.85
2018-04-26T07:36:22.726Z,68.35
2018-04-26T07:39:26.121Z,67.98
2018-04-26T07:42:29.520Z,66.18
2018-04-26T07:45:32.937Z,66.37
2018-04-26T07:48:36.253Z,68.09
2018-04-26T07:51:40.434Z,67.42
2018-04-26T07:54:43.882Z,67.12
2018-04-26T07:57:48.072Z,64.07
2018-04-26T08:00:51.448Z,64.54
2018-04-26T08:03:54.853Z,63.89
2018-04-26T08:06:58.168Z,64.67
2018-04-26T08:10:01.548Z,64.63
2018-04-26T08:13:04.849Z,63.95
2018-04-26T08:16:08.177Z,64.57
2018-04-26T08:19:11.562Z,64.63
2018-04-26T08:22:14.904Z,63.63
2018-04-26T08:25:18.968Z,63.86
2018-04-26T08:28:22.358Z,65.76
2018-04-26T08:31:25.767Z,65.75
2018-04-26T08:34:29.115Z,65.02
2018-04-26T08:37:33.184Z,64.24
2018-04-26T08:40:36.512Z,63.55
2018-04-26T08:43:39.822Z,62.56
2018-04-26T08:46:44.669Z,64.04
2018-04-26T08:49:48.110Z,63.95
2018-04-26T08:52:51.518Z,63.71
2018-04-26T08:55:54.826Z,63.49
2018-04-26T08:58:58.166Z,63.87
2018-04-26T09:02:01.515Z,64.50
2018-04-26T09:05:04.872Z,64.25
2018-04-26T09:08:08.197Z,64.80
2018-04-26T09:11:11.521Z,64.36
2018-04-26T09:14:14.901Z,62.84
2018-04-26T09:17:18.269Z,61.89
2018-04-26T09:20:21.589Z,61.60
2018-04-26T09:23:24.952Z,63.14
2018-04-26T09:26:28.288Z,64.23
2018-04-26T09:29:31.638Z,64.77
2018-04-26T09:32:36.517Z,65.52
2018-04-26T09:35:39.857Z,66.15
2018-04-26T09:38:43.219Z,65.71
2018-04-26T09:41:46.582Z,65.36
2018-04-26T09:44:49.899Z,64.99
2018-04-26T09:47:53.227Z,62.84
2018-04-26T09:50:56.618Z,60.66
2018-04-26T09:53:59.920Z,59.85
2018-04-26T09:57:03.388Z,60.85
2018-04-26T10:00:06.722Z,62.54
2018-04-26T10:03:10.121Z,64.37
2018-04-26T10:06:30.663Z,61.23
2018-04-26T10:09:34.899Z,62.79
2018-04-26T10:12:38.252Z,63.74
2018-04-26T10:15:41.592Z,63.86
2018-04-26T10:18:44.917Z,64.20
2018-04-26T10:21:48.233Z,64.52
2018-04-26T10:24:51.554Z,65.70
2018-04-26T10:27:54.885Z,66.89
2018-04-26T10:30:58.226Z,67.42
2018-04-26T10:34:01.529Z,69.82
2018-04-26T10:37:04.857Z,70.64
2018-04-26T10:40:08.946Z,70.48
2018-04-26T10:43:12.278Z,71.93
2018-04-26T10:46:16.458Z,71.86
2018-04-26T10:49:19.874Z,70.30
2018-04-26T10:52:23.205Z,67.99
2018-04-26T10:55:27.369Z,68.68
2018-04-26T10:58:30.692Z,67.46
2018-04-26T11:01:34.080Z,65.27
2018-04-26T11:04:37.427Z,62.51
2018-04-26T11:07:40.766Z,63.02
2018-04-26T11:10:44.063Z,62.66
2018-04-26T11:13:47.474Z,63.73
2018-04-26T11:16:50.861Z,62.91
2018-04-26T11:19:54.182Z,61.87
2018-04-26T11:22:57.514Z,59.42
2018-04-26T11:26:02.341Z,58.99
2018-04-26T11:29:05.652Z,58.94
2018-04-26T11:32:08.983Z,56.31
2018-04-26T11:35:12.294Z,57.72
2018-04-26T11:38:15.692Z,57.70
2018-04-26T11:41:19.047Z,59.50
2018-04-26T11:44:22.398Z,60.71
2018-04-26T11:47:25.807Z,62.05
2018-04-26T11:50:29.194Z,62.25
2018-04-26T11:53:32.508Z,63.84
2018-04-26T11:56:35.881Z,64.17
2018-04-26T11:59:39.310Z,62.82
2018-04-26T12:02:43.613Z,61.31
2018-04-26T12:05:46.861Z,64.40
2018-04-26T12:08:50.204Z,64.75
2018-04-26T12:11:53.602Z,62.71
2018-04-26T12:14:56.919Z,62.11
2018-04-26T12:18:00.362Z,62.63
2018-04-26T12:21:03.706Z,64.12
2018-04-26T12:24:07.131Z,64.08
2018-04-26T12:27:10.452Z,61.96
2018-04-26T12:30:13.813Z,62.99
2018-04-26T12:33:17.153Z,63.75
2018-04-26T12:36:20.481Z,64.75
2018-04-26T12:39:23.792Z,65.21
2018-04-26T12:42:27.196Z,65.14
2018-04-26T12:45:31.208Z,64.98
2018-04-26T12:48:34.559Z,65.79
2018-04-26T12:51:37.890Z,66.77
2018-04-26T12:54:41.305Z,67.33
2018-04-26T12:57:44.705Z,66.75
2018-04-26T13:00:48.061Z,66.65
2018-04-26T13:03:51.460Z,63.95
2018-04-26T13:06:54.798Z,61.58
2018-04-26T13:09:58.197Z,61.56
2018-04-26T13:13:01.610Z,62.18
2018-04-26T13:16:05.064Z,60.76
2018-04-26T13:19:08.379Z,58.50
2018-04-26T13:22:11.759Z,58.40
2018-04-26T13:25:15.102Z,58.00
2018-04-26T13:28:18.440Z,59.59
2018-04-26T13:31:22.620Z,58.31
2018-04-26T13:34:26.015Z,57.00
2018-04-26T13:37:29.369Z,55.93
2018-04-26T13:40:32.772Z,56.96
2018-04-26T13:43:36.088Z,56.50
2018-04-26T13:46:39.469Z,57.60
2018-04-26T13:49:42.819Z,58.63
2018-04-26T13:52:46.269Z,59.78
2018-04-26T13:55:49.646Z,59.76
2018-04-26T13:58:53.754Z,59.45
2018-04-26T14:01:57.142Z,60.43
2018-04-26T14:05:00.625Z,58.51
2018-04-26T14:08:04.054Z,58.22
2018-04-26T14:11:08.972Z,58.41
2018-04-26T14:14:12.365Z,59.70
2018-04-26T14:17:15.780Z,60.06
2018-04-26T14:20:19.165Z,58.98
2018-04-26T14:23:22.660Z,58.72
2018-04-26T14:26:25.996Z,58.71
2018-04-26T14:29:30.245Z,60.27
2018-04-26T14:32:33.613Z,60.11
2018-04-26T14:35:37.711Z,59.49
2018-04-26T14:38:41.052Z,58.82
2018-04-26T14:41:45.161Z,58.96
2018-04-26T14:44:49.240Z,58.65
2018-04-26T14:47:52.567Z,58.15
2018-04-26T14:50:56.649Z,57.48
2018-04-26T14:54:00.049Z,58.91
2018-04-26T14:57:03.396Z,59.32
2018-04-26T15:00:06.690Z,60.60
2018-04-26T15:03:10.862Z,61.60
2018-04-26T15:06:14.177Z,61.01
2018-04-26T15:09:17.511Z,58.83
2018-04-26T15:12:22.350Z,60.57
2018-04-26T15:15:25.733Z,61.16
2018-04-26T15:18:29.150Z,62.62
2018-04-26T15:21:32.498Z,62.76
2018-04-26T15:24:35.921Z,62.78
2018-04-26T15:27:39.304Z,63.33
2018-04-26T15:30:42.749Z,63.17
2018-04-26T15:33:46.082Z,63.64
2018-04-26T15:36:49.413Z,63.83
2018-04-26T15:39:52.730Z,64.03
2018-04-26T15:42:57.206Z,64.60
2018-04-26T15:46:00.622Z,64.32
2018-04-26T15:49:03.947Z,63.54
2018-04-26T15:52:08.144Z,63.68
2018-04-26T15:55:30.950Z,65.00
2018-04-26T16:03:02.796Z,66.93
2018-04-26T16:10:17.266Z,67.93
2018-04-26T16:13:44.105Z,68.38
2018-04-26T16:17:25.473Z,69.02
2018-04-26T16:20:52.163Z,69.75
2018-04-26T16:24:18.849Z,69.07
2018-04-26T16:27:43.766Z,67.06
2018-04-26T16:31:10.637Z,66.66
2018-04-26T16:34:43.920Z,68.58
2018-04-26T16:38:10.670Z,70.08
2018-04-26T16:41:14.090Z,70.29
2018-04-26T16:44:17.447Z,70.07
2018-04-26T16:47:20.750Z,65.05
2018-04-26T16:50:24.086Z,66.52
2018-04-26T16:53:27.421Z,68.80
2018-04-26T16:56:30.807Z,69.98
2018-04-26T16:59:34.217Z,70.76
2018-04-26T17:02:37.625Z,71.49
2018-04-26T17:05:41.733Z,69.69
2018-04-26T17:08:45.127Z,69.35
2018-04-26T17:11:48.455Z,69.93
2018-04-26T17:14:52.528Z,70.68
2018-04-26T17:17:55.848Z,70.73
2018-04-26T17:20:59.236Z,70.50
2018-04-26T17:24:02.751Z,71.19
2018-04-26T17:27:06.136Z,71.17
2018-04-26T17:30:09.551Z,71.68
2018-04-26T17:33:12.863Z,71.64
2018-04-26T17:36:16.952Z,71.75
2018-04-26T17:39:20.431Z,71.92
2018-04-26T17:42:23.811Z,71.43
2018-04-26T17:45:28.810Z,71.67
2018-04-26T17:48:32.993Z,72.37
2018-04-26T17:51:36.396Z,72.22
2018-04-26T17:54:39.951Z,71.90
2018-04-26T17:57:43.289Z,72.64
2018-04-26T18:00:46.828Z,73.46
2018-04-26T18:03:50.243Z,73.41
2018-04-26T18:06:54.339Z,72.73
2018-04-26T18:09:57.721Z,73.24
2018-04-26T18:13:01.121Z,73.59
2018-04-26T18:16:04.506Z,74.00
2018-04-26T18:19:07.936Z,73.39
2018-04-26T18:22:11.263Z,74.07
2018-04-26T18:25:15.452Z,74.88
2018-04-26T18:28:19.554Z,75.25
2018-04-26T18:31:22.961Z,76.29
2018-04-26T18:34:26.288Z,76.03
2018-04-26T18:37:29.664Z,76.86
2018-04-26T18:40:33.004Z,77.20
2018-04-26T18:43:36.343Z,77.24
2018-04-26T18:46:39.702Z,77.40
2018-04-26T18:49:42.999Z,77.68
2018-04-26T18:52:46.457Z,77.27
2018-04-26T18:55:49.773Z,77.56
2018-04-26T18:58:53.154Z,77.99
2018-04-26T19:01:56.540Z,78.32
2018-04-26T19:04:59.940Z,78.35
2018-04-26T19:08:03.329Z,78.52
2018-04-26T19:11:06.658Z,79.20
2018-04-26T19:14:10.072Z,79.42
2018-04-26T19:17:14.938Z,79.05
2018-04-26T19:20:18.297Z,79.43
2018-04-26T19:23:21.637Z,79.89
2018-04-26T19:26:25.010Z,80.01
2018-04-26T19:29:29.153Z,79.94
2018-04-26T19:32:32.514Z,80.08
2018-04-26T19:35:35.860Z,79.86
2018-04-26T19:38:39.203Z,79.89
2018-04-26T19:41:42.688Z,80.00
2018-04-26T19:44:46.174Z,80.10
2018-04-26T19:47:49.593Z,80.18
2018-04-26T19:50:53.054Z,80.08
2018-04-26T19:53:56.401Z,79.80
2018-04-26T19:57:00.519Z,79.53
2018-04-26T20:00:03.831Z,79.64
2018-04-26T20:03:07.213Z,80.08
2018-04-26T20:06:10.546Z,80.11
2018-04-26T20:09:14.643Z,80.11
2018-04-26T20:12:17.969Z,80.51
2018-04-26T20:15:22.138Z,80.53
2018-04-26T20:18:25.605Z,80.54
2018-04-26T20:21:28.935Z,80.51
2018-04-26T20:24:32.237Z,80.39
2018-04-26T20:27:35.645Z,80.38
2018-04-26T20:30:40.057Z,80.61
2018-04-26T20:33:43.456Z,80.58
2018-04-26T20:36:47.596Z,80.27
2018-04-26T20:39:50.929Z,80.56
2018-04-26T20:42:54.266Z,80.79
2018-04-26T20:45:57.600Z,80.38
2018-04-26T20:49:00.913Z,80.26
2018-04-26T20:52:05.077Z,80.12
2018-04-26T20:55:08.381Z,80.31
2018-04-26T20:58:11.711Z,80.28
2018-04-26T21:01:15.895Z,79.99
2018-04-26T21:04:19.220Z,79.81
2018-04-26T21:07:22.594Z,80.08
2018-04-26T21:10:25.990Z,80.28
2018-04-26T21:13:29.307Z,79.88
2018-04-26T21:16:32.680Z,79.77
2018-04-26T21:19:35.986Z,79.96
2018-04-26T21:22:39.299Z,80.03
2018-04-26T21:25:42.701Z,80.17
2018-04-26T21:28:46.028Z,80.13
2018-04-26T21:31:50.218Z,80.66
2018-04-26T21:34:53.608Z,80.38
2018-04-26T21:37:56.927Z,80.53
2018-04-26T21:41:00.300Z,80.63
2018-04-26T21:44:03.704Z,80.91
2018-04-26T21:47:07.034Z,81.18
2018-04-26T21:50:15.933Z,81.16
2018-04-26T21:53:24.766Z,81.73
2018-04-26T21:56:33.865Z,81.91
2018-04-26T21:59:42.563Z,82.04
2018-04-26T22:02:46.019Z,82.08
2018-04-26T22:05:49.350Z,82.29
2018-04-26T22:08:53.548Z,82.54
2018-04-26T22:11:56.870Z,82.33
2018-04-26T22:15:00.965Z,82.52
2018-04-26T22:18:05.056Z,82.81
2018-04-26T22:21:08.387Z,82.79
2018-04-26T22:24:11.697Z,82.92
2018-04-26T22:27:15.784Z,83.10
2018-04-26T22:30:19.184Z,82.88
2018-04-26T22:33:22.501Z,83.00
2018-04-26T22:36:25.805Z,83.21
2018-04-26T22:39:29.135Z,82.89
2018-04-26T22:42:32.452Z,82.75
2018-04-26T22:45:35.776Z,82.43
2018-04-26T22:48:39.600Z,82.01
2018-04-26T22:51:42.981Z,81.91
2018-04-26T22:54:46.380Z,81.81
2018-04-26T22:57:49.779Z,82.21
2018-04-26T23:00:53.180Z,82.36
2018-04-26T23:03:56.534Z,82.48
2018-04-26T23:06:59.889Z,82.88
2018-04-26T23:10:03.284Z,83.22
2018-04-26T23:13:07.362Z,83.14
2018-04-26T23:16:10.680Z,82.53
2018-04-26T23:19:13.972Z,82.32
2018-04-26T23:22:17.382Z,82.15
2018-04-26T23:25:20.761Z,81.83
2018-04-26T23:28:24.040Z,81.36
2018-04-26T23:31:27.386Z,80.83
2018-04-26T23:34:30.772Z,80.47
2018-04-26T23:37:34.169Z,80.58
2018-04-26T23:40:37.615Z,80.62
2018-04-26T23:43:41.823Z,80.71
2018-04-26T23:46:45.198Z,80.40
2018-04-26T23:49:48.506Z,80.34
2018-04-26T23:52:51.898Z,80.40
2018-04-26T23:55:55.299Z,79.60
2018-04-26T23:58:58.694Z,79.29
